createdAt,value
2022-10-22T00:01:00.546Z,17.61
2022-10-22T00:03:26.934Z,17.62
2022-10-22T00:05:53.293Z,17.66
2022-10-22T00:08:19.725Z,17.57
2022-10-22T00:10:46.109Z,17.50
2022-10-22T00:13:13.189Z,17.51
2022-10-22T00:15:39.834Z,17.51
2022-10-22T00:18:06.437Z,17.55
2022-10-22T00:20:33.013Z,17.16
2022-10-22T00:22:59.349Z,16.71
2022-10-22T00:25:25.695Z,16.60
2022-10-22T00:27:52.180Z,16.85
2022-10-22T00:30:18.540Z,17.02
2022-10-22T00:32:45.195Z,16.95
2022-10-22T00:35:11.575Z,16.75
2022-10-22T00:37:38.015Z,16.71
2022-10-22T00:40:05.053Z,16.58
2022-10-22T00:42:31.385Z,16.46
2022-10-22T00:45:03.517Z,16.37
2022-10-22T00:47:37.119Z,16.41
2022-10-22T00:50:07.663Z,16.52
2022-10-22T00:52:34.132Z,16.32
2022-10-22T00:55:01.407Z,16.27
2022-10-22T00:57:28.538Z,16.36
2022-10-22T00:59:56.663Z,16.53
2022-10-22T01:02:23.642Z,16.61
2022-10-22T01:04:49.977Z,16.80
2022-10-22T01:07:24.134Z,16.76
2022-10-22T01:09:55.876Z,16.71
2022-10-22T01:12:47.656Z,16.72
2022-10-22T01:15:43.413Z,16.96
2022-10-22T01:18:23.833Z,16.81
2022-10-22T01:21:12.009Z,16.93
2022-10-22T01:24:12.555Z,17.11
2022-10-22T01:27:00.382Z,17.20
2022-10-22T01:29:38.787Z,17.24
2022-10-22T01:32:11.637Z,17.31
2022-10-22T01:34:41.463Z,17.33
2022-10-22T01:37:09.791Z,17.32
2022-10-22T01:39:37.904Z,17.35
2022-10-22T01:42:04.283Z,17.31
2022-10-22T01:44:33.395Z,17.22
2022-10-22T01:47:17.665Z,17.23
2022-10-22T01:50:05.892Z,17.31
2022-10-22T01:52:50.831Z,17.27
2022-10-22T01:55:35.420Z,17.27
2022-10-22T01:58:34.848Z,17.33
2022-10-22T02:01:26.745Z,17.38
2022-10-22T02:04:05.463Z,17.35
2022-10-22T02:06:33.619Z,17.26
2022-10-22T02:09:02.125Z,17.25
2022-10-22T02:11:28.676Z,17.33
2022-10-22T02:13:59.663Z,17.35
2022-10-22T02:16:35.549Z,17.34
2022-10-22T02:19:06.504Z,17.35
2022-10-22T02:21:32.956Z,17.35
2022-10-22T02:23:59.283Z,17.39
2022-10-22T02:26:34.652Z,17.46
2022-10-22T02:29:25.529Z,17.35
2022-10-22T02:31:53.745Z,17.17
2022-10-22T02:34:24.075Z,16.78
2022-10-22T02:36:51.936Z,16.34
2022-10-22T02:39:20.732Z,16.22
2022-10-22T02:41:48.140Z,16.56
2022-10-22T02:44:14.504Z,16.75
2022-10-22T02:46:42.781Z,16.89
2022-10-22T02:49:09.088Z,16.99
2022-10-22T02:51:35.432Z,17.02
2022-10-22T02:54:01.810Z,17.12
2022-10-22T02:56:28.432Z,17.12
2022-10-22T02:58:54.795Z,17.15
2022-10-22T03:01:21.145Z,17.24
2022-10-22T03:03:47.479Z,17.28
2022-10-22T03:06:14.029Z,17.31
2022-10-22T03:08:40.901Z,17.33
2022-10-22T03:11:07.406Z,17.34
2022-10-22T03:13:33.820Z,17.35
2022-10-22T03:16:03.361Z,17.39
2022-10-22T03:18:29.720Z,17.41
2022-10-22T03:21:19.260Z,17.40
2022-10-22T03:23:45.628Z,17.43
2022-10-22T03:26:13.991Z,17.42
2022-10-22T03:28:42.432Z,17.45
2022-10-22T03:31:08.809Z,17.44
2022-10-22T03:33:35.414Z,17.45
2022-10-22T03:36:02.047Z,17.44
2022-10-22T03:38:29.696Z,17.43
2022-10-22T03:40:56.077Z,17.42
2022-10-22T03:43:22.533Z,17.48
2022-10-22T03:45:48.859Z,17.47
2022-10-22T03:48:15.181Z,17.45
2022-10-22T03:50:41.576Z,17.47
2022-10-22T03:53:10.701Z,17.39
2022-10-22T03:55:38.206Z,17.29
2022-10-22T03:58:05.414Z,17.28
2022-10-22T04:00:32.044Z,17.36
2022-10-22T04:02:58.407Z,17.35
2022-10-22T04:05:24.805Z,17.32
2022-10-22T04:07:51.134Z,17.20
2022-10-22T04:10:17.528Z,16.97
2022-10-22T04:12:48.106Z,16.90
2022-10-22T04:15:14.854Z,17.03
2022-10-22T04:17:41.551Z,17.08
2022-10-22T04:20:08.721Z,17.06
2022-10-22T04:22:35.561Z,16.98
2022-10-22T04:25:02.774Z,17.03
2022-10-22T04:27:31.040Z,16.96
2022-10-22T04:29:57.405Z,16.78
2022-10-22T04:32:24.183Z,16.83
2022-10-22T04:34:50.523Z,16.66
2022-10-22T04:37:16.878Z,16.51
2022-10-22T04:39:43.297Z,16.58
2022-10-22T04:42:09.721Z,16.71
2022-10-22T04:44:36.036Z,16.82
2022-10-22T04:47:02.372Z,17.00
2022-10-22T04:49:28.966Z,17.13
2022-10-22T04:51:55.525Z,17.25
2022-10-22T04:54:22.092Z,17.24
2022-10-22T04:56:48.514Z,17.04
2022-10-22T04:59:15.084Z,16.75
2022-10-22T05:01:43.636Z,16.70
2022-10-22T05:04:15.775Z,16.42
2022-10-22T05:06:43.043Z,16.43
2022-10-22T05:09:18.804Z,16.34
2022-10-22T05:11:50.670Z,16.48
2022-10-22T05:14:19.451Z,16.53
2022-10-22T05:16:48.557Z,16.46
2022-10-22T05:19:23.893Z,16.38
2022-10-22T05:21:54.898Z,16.03
2022-10-22T05:24:21.992Z,15.98
2022-10-22T05:26:52.856Z,16.00
2022-10-22T05:29:19.784Z,16.21
2022-10-22T05:31:46.374Z,16.06
2022-10-22T05:34:13.230Z,16.16
2022-10-22T05:36:39.789Z,16.12
2022-10-22T05:39:06.388Z,16.26
2022-10-22T05:41:33.801Z,16.19
2022-10-22T05:44:00.528Z,16.21
2022-10-22T05:46:29.820Z,16.37
2022-10-22T05:48:59.136Z,16.17
2022-10-22T05:51:27.959Z,16.15
2022-10-22T05:53:56.703Z,15.94
2022-10-22T05:56:23.903Z,16.02
2022-10-22T05:58:50.608Z,16.09
2022-10-22T06:01:28.747Z,15.97
2022-10-22T06:03:57.781Z,15.98
2022-10-22T06:06:37.958Z,15.90
2022-10-22T06:09:24.798Z,15.66
2022-10-22T06:11:51.805Z,15.75
2022-10-22T06:14:19.248Z,15.63
2022-10-22T06:16:46.151Z,15.58
2022-10-22T06:19:14.188Z,15.45
2022-10-22T06:21:40.955Z,15.40
2022-10-22T06:24:07.825Z,15.50
2022-10-22T06:26:34.163Z,15.50
2022-10-22T06:29:00.577Z,15.45
2022-10-22T06:31:28.466Z,15.37
2022-10-22T06:33:56.703Z,15.29
2022-10-22T06:36:24.268Z,15.26
2022-10-22T06:38:54.746Z,15.13
2022-10-22T06:41:24.380Z,15.11
2022-10-22T06:43:53.527Z,15.03
2022-10-22T06:46:21.555Z,15.01
2022-10-22T06:48:53.145Z,15.08
2022-10-22T06:51:21.020Z,15.13
2022-10-22T06:53:48.025Z,15.35
2022-10-22T06:56:17.053Z,15.48
2022-10-22T06:58:43.479Z,15.63
2022-10-22T07:01:14.991Z,15.83
2022-10-22T07:03:42.356Z,15.94
2022-10-22T07:06:11.653Z,16.04
2022-10-22T07:08:39.033Z,15.91
2022-10-22T07:11:17.744Z,16.02
2022-10-22T07:13:44.759Z,16.24
2022-10-22T07:16:11.761Z,16.31
2022-10-22T07:18:39.330Z,16.11
2022-10-22T07:21:07.066Z,15.94
2022-10-22T07:23:33.821Z,15.63
2022-10-22T07:26:02.338Z,15.52
2022-10-22T07:28:30.096Z,15.72
2022-10-22T07:30:56.408Z,15.97
2022-10-22T07:33:22.731Z,16.28
2022-10-22T07:35:49.036Z,16.42
2022-10-22T07:38:15.366Z,16.52
2022-10-22T07:40:41.670Z,16.57
2022-10-22T07:43:08.076Z,16.74
2022-10-22T07:45:34.434Z,16.95
2022-10-22T07:48:01.928Z,17.11
2022-10-22T07:50:28.326Z,17.13
2022-10-22T07:52:56.129Z,17.25
2022-10-22T07:55:24.516Z,17.28
2022-10-22T07:57:51.012Z,16.98
2022-10-22T08:00:20.455Z,16.75
2022-10-22T08:02:49.451Z,16.61
2022-10-22T08:05:16.364Z,16.42
2022-10-22T08:07:43.370Z,16.22
2022-10-22T08:10:10.690Z,15.87
2022-10-22T08:12:38.527Z,15.94
2022-10-22T08:15:06.081Z,15.86
2022-10-22T08:17:32.803Z,16.04
2022-10-22T08:19:59.137Z,16.18
2022-10-22T08:22:25.468Z,16.14
2022-10-22T08:24:51.839Z,16.20
2022-10-22T08:27:18.210Z,16.38
2022-10-22T08:29:44.675Z,16.54
2022-10-22T08:32:11.316Z,16.66
2022-10-22T08:34:37.937Z,16.76
2022-10-22T08:37:05.508Z,16.49
2022-10-22T08:39:31.907Z,16.34
2022-10-22T08:42:25.640Z,16.49
2022-10-22T08:45:19.881Z,16.66
2022-10-22T08:48:00.598Z,16.59
2022-10-22T08:50:39.042Z,16.57
2022-10-22T08:53:15.254Z,16.38
2022-10-22T08:55:42.382Z,16.26
2022-10-22T08:58:18.721Z,16.32
2022-10-22T09:00:58.714Z,16.21
2022-10-22T09:03:57.721Z,16.22
2022-10-22T09:06:26.646Z,16.28
2022-10-22T09:08:54.365Z,16.33
2022-10-22T09:11:32.464Z,16.58
2022-10-22T09:14:00.389Z,16.69
2022-10-22T09:16:32.736Z,16.77
2022-10-22T09:19:19.330Z,16.87
2022-10-22T09:21:59.971Z,16.68
2022-10-22T09:24:47.494Z,16.76
2022-10-22T09:27:17.201Z,16.99
2022-10-22T09:29:45.284Z,16.97
2022-10-22T09:32:11.790Z,17.17
2022-10-22T09:34:38.826Z,16.95
2022-10-22T09:37:09.086Z,17.04
2022-10-22T09:39:46.582Z,17.11
2022-10-22T09:42:16.881Z,17.15
2022-10-22T09:44:46.354Z,17.12
2022-10-22T09:47:42.995Z,17.13
2022-10-22T09:50:30.075Z,17.25
2022-10-22T09:53:31.475Z,17.25
2022-10-22T09:56:00.624Z,17.28
2022-10-22T09:58:27.477Z,17.26
2022-10-22T10:01:00.254Z,17.23
2022-10-22T10:03:30.954Z,17.36
2022-10-22T10:06:02.995Z,17.40
2022-10-22T10:08:32.390Z,17.59
2022-10-22T10:11:06.251Z,17.74
2022-10-22T10:13:57.012Z,17.85
2022-10-22T10:16:38.662Z,18.01
2022-10-22T10:19:21.328Z,18.04
2022-10-22T10:21:59.614Z,18.06
2022-10-22T10:24:39.003Z,18.26
2022-10-22T10:27:12.895Z,18.32
2022-10-22T10:30:13.325Z,18.19
2022-10-22T10:33:14.565Z,18.24
2022-10-22T10:35:58.742Z,18.45
2022-10-22T10:38:56.137Z,18.51
2022-10-22T10:41:33.233Z,18.65
2022-10-22T10:44:44.444Z,18.93
2022-10-22T10:47:33.478Z,19.01
2022-10-22T10:50:17.255Z,18.98
2022-10-22T10:53:00.546Z,18.98
2022-10-22T10:55:41.907Z,19.00
2022-10-22T10:58:23.446Z,18.92
2022-10-22T11:01:02.115Z,18.92
2022-10-22T11:03:34.581Z,19.20
2022-10-22T11:06:07.436Z,19.00
2022-10-22T11:08:38.080Z,19.04
2022-10-22T11:11:10.794Z,19.39
2022-10-22T11:13:55.653Z,19.59
2022-10-22T11:16:58.602Z,19.49
2022-10-22T11:19:46.224Z,19.30
2022-10-22T11:22:30.502Z,19.40
2022-10-22T11:25:15.525Z,19.83
2022-10-22T11:27:49.045Z,19.80
2022-10-22T11:30:19.030Z,19.87
2022-10-22T11:32:53.347Z,20.06
2022-10-22T11:35:32.930Z,19.91
2022-10-22T11:38:00.880Z,19.88
2022-10-22T11:40:38.396Z,20.22
2022-10-22T11:46:24.547Z,21.00
2022-10-22T11:49:25.948Z,21.11
2022-10-22T11:52:21.334Z,21.55
2022-10-22T11:54:47.685Z,21.31
2022-10-22T11:57:49.857Z,21.55
2022-10-22T12:00:34.009Z,21.07
2022-10-22T12:03:16.665Z,20.79
2022-10-22T12:05:44.426Z,20.72
2022-10-22T12:08:14.864Z,20.62
2022-10-22T12:10:56.711Z,20.77
2022-10-22T12:14:00.938Z,21.16
2022-10-22T12:16:54.509Z,20.86
2022-10-22T12:19:22.478Z,21.11
2022-10-22T12:21:54.467Z,21.30
2022-10-22T12:24:23.225Z,21.95
2022-10-22T12:26:54.452Z,22.48
2022-10-22T12:29:23.596Z,23.01
2022-10-22T12:31:50.313Z,23.59
2022-10-22T12:34:19.263Z,23.89
2022-10-22T12:36:48.552Z,24.37
2022-10-22T12:39:20.664Z,24.41
2022-10-22T12:41:47.382Z,24.16
2022-10-22T12:44:16.515Z,23.89
2022-10-22T12:46:45.405Z,23.27
2022-10-22T12:49:52.965Z,23.20
2022-10-22T12:52:31.180Z,23.91
2022-10-22T12:55:05.021Z,24.04
2022-10-22T12:57:40.474Z,23.51
2022-10-22T13:00:20.752Z,23.54
2022-10-22T13:02:47.552Z,23.31
2022-10-22T13:05:23.918Z,23.59
2022-10-22T13:07:57.449Z,23.97
2022-10-22T13:10:32.213Z,24.26
2022-10-22T13:13:07.421Z,23.76
2022-10-22T13:15:41.849Z,23.95
2022-10-22T13:18:23.898Z,23.81
2022-10-22T13:21:00.542Z,24.38
2022-10-22T13:23:31.032Z,24.23
2022-10-22T13:26:38.028Z,23.69
2022-10-22T13:29:26.064Z,24.13
2022-10-22T13:38:31.171Z,24.74
2022-10-22T13:44:14.096Z,25.89
2022-10-22T13:46:42.831Z,26.23
2022-10-22T13:49:27.733Z,26.15
2022-10-22T13:52:05.461Z,26.18
2022-10-22T13:54:35.141Z,25.69
2022-10-22T13:57:11.382Z,26.09
2022-10-22T13:59:52.927Z,26.11
2022-10-22T14:02:27.513Z,26.29
2022-10-22T14:05:06.907Z,25.29
2022-10-22T14:07:36.548Z,24.66
2022-10-22T14:10:13.040Z,24.61
2022-10-22T14:12:39.373Z,24.85
2022-10-22T14:15:06.302Z,25.30
2022-10-22T14:17:32.716Z,25.60
2022-10-22T14:19:59.857Z,25.48
2022-10-22T14:22:28.120Z,25.45
2022-10-22T14:24:55.114Z,25.02
2022-10-22T14:27:21.514Z,25.35
2022-10-22T14:29:47.835Z,25.71
2022-10-22T14:32:21.629Z,25.99
2022-10-22T14:34:48.029Z,26.18
2022-10-22T14:37:20.223Z,25.84
2022-10-22T14:39:51.786Z,25.98
2022-10-22T14:42:19.807Z,25.93
2022-10-22T14:44:46.466Z,25.93
2022-10-22T14:47:12.810Z,25.45
2022-10-22T14:49:39.174Z,25.35
2022-10-22T14:52:05.508Z,25.53
2022-10-22T14:54:33.046Z,25.08
2022-10-22T14:56:59.383Z,25.30
2022-10-22T14:59:25.735Z,25.50
2022-10-22T15:01:52.107Z,25.64
2022-10-22T15:04:18.514Z,25.73
2022-10-22T15:06:44.857Z,25.63
2022-10-22T15:09:11.280Z,25.30
2022-10-22T15:11:37.650Z,25.15
2022-10-22T15:14:03.968Z,25.28
2022-10-22T15:16:30.427Z,25.45
2022-10-22T15:18:57.344Z,25.43
2022-10-22T15:21:23.705Z,25.45
2022-10-22T15:23:50.198Z,25.54
2022-10-22T15:26:17.295Z,25.34
2022-10-22T15:28:43.619Z,25.39
2022-10-22T15:31:13.109Z,25.25
2022-10-22T15:33:41.565Z,25.16
2022-10-22T15:36:16.642Z,25.24
2022-10-22T15:38:43.155Z,25.12
2022-10-22T15:41:12.649Z,25.05
2022-10-22T15:43:38.977Z,24.81
2022-10-22T15:46:11.451Z,24.70
2022-10-22T15:48:38.168Z,24.64
2022-10-22T15:51:09.772Z,24.53
2022-10-22T15:53:36.220Z,24.60
2022-10-22T15:56:02.664Z,24.77
2022-10-22T15:58:29.121Z,24.54
2022-10-22T16:00:55.493Z,24.67
2022-10-22T16:03:21.923Z,24.69
2022-10-22T16:05:54.394Z,24.67
2022-10-22T16:08:21.200Z,24.42
2022-10-22T16:10:48.444Z,24.48
2022-10-22T16:13:15.211Z,24.50
2022-10-22T16:15:41.940Z,24.55
2022-10-22T16:18:08.372Z,24.53
2022-10-22T16:20:39.649Z,24.48
2022-10-22T16:23:06.183Z,24.40
2022-10-22T16:25:39.977Z,24.32
2022-10-22T16:28:07.147Z,24.18
2022-10-22T16:30:35.136Z,24.07
2022-10-22T16:33:03.506Z,24.00
2022-10-22T16:35:30.818Z,23.87
2022-10-22T16:37:57.330Z,23.72
2022-10-22T16:40:23.671Z,23.56
2022-10-22T16:42:50.015Z,23.57
2022-10-22T16:45:17.310Z,23.48
2022-10-22T16:47:45.650Z,23.32
2022-10-22T16:50:12.001Z,23.26
2022-10-22T16:52:38.311Z,23.14
2022-10-22T16:55:05.038Z,23.03
2022-10-22T16:57:31.917Z,23.00
2022-10-22T16:59:58.215Z,22.96
2022-10-22T17:02:24.572Z,22.88
2022-10-22T17:04:51.122Z,22.69
2022-10-22T17:07:17.652Z,22.60
2022-10-22T17:09:44.025Z,22.52
2022-10-22T17:12:10.352Z,22.44
2022-10-22T17:14:36.950Z,22.42
2022-10-22T17:17:03.298Z,22.34
2022-10-22T17:19:29.862Z,22.30
2022-10-22T17:21:56.180Z,22.24
2022-10-22T17:24:22.562Z,22.20
2022-10-22T17:26:48.909Z,22.15
2022-10-22T17:29:15.432Z,22.09
2022-10-22T17:31:41.969Z,21.96
2022-10-22T17:34:14.719Z,21.85
2022-10-22T17:36:41.959Z,21.83
2022-10-22T17:39:08.484Z,21.72
2022-10-22T17:41:37.030Z,21.70
2022-10-22T17:44:05.689Z,21.56
2022-10-22T17:46:32.668Z,21.54
2022-10-22T17:49:04.268Z,21.55
2022-10-22T17:51:31.994Z,21.44
2022-10-22T17:53:58.773Z,21.31
2022-10-22T17:56:30.133Z,21.19
2022-10-22T17:58:56.554Z,21.09
2022-10-22T18:01:28.434Z,21.06
2022-10-22T18:03:59.029Z,21.10
2022-10-22T18:06:25.581Z,21.05
2022-10-22T18:08:51.915Z,20.97
2022-10-22T18:11:21.271Z,20.85
2022-10-22T18:13:53.244Z,20.87
2022-10-22T18:16:20.053Z,20.81
2022-10-22T18:18:48.818Z,20.66
2022-10-22T18:21:16.590Z,20.55
2022-10-22T18:23:43.254Z,20.49
2022-10-22T18:26:09.693Z,20.55
2022-10-22T18:28:36.510Z,20.61
2022-10-22T18:31:08.603Z,20.62
2022-10-22T18:33:36.961Z,20.59
2022-10-22T18:36:05.759Z,20.53
2022-10-22T18:38:32.157Z,20.53
2022-10-22T18:40:58.516Z,20.53
2022-10-22T18:43:24.953Z,20.51
2022-10-22T18:45:51.523Z,20.30
2022-10-22T18:48:20.196Z,20.40
2022-10-22T18:50:47.158Z,20.23
2022-10-22T18:53:16.066Z,20.16
2022-10-22T18:55:42.574Z,20.10
2022-10-22T18:58:08.948Z,20.01
2022-10-22T19:00:36.339Z,19.88
2022-10-22T19:03:03.212Z,19.84
2022-10-22T19:05:29.762Z,19.87
2022-10-22T19:07:56.278Z,19.82
2022-10-22T19:10:22.778Z,19.66
2022-10-22T19:12:49.177Z,19.65
2022-10-22T19:15:16.106Z,19.60
2022-10-22T19:17:42.779Z,19.58
2022-10-22T19:20:09.950Z,19.51
2022-10-22T19:22:36.465Z,19.54
2022-10-22T19:25:04.270Z,19.53
2022-10-22T19:27:32.573Z,19.44
2022-10-22T19:29:59.034Z,19.43
2022-10-22T19:32:27.563Z,19.39
2022-10-22T19:34:57.317Z,19.43
2022-10-22T19:37:23.848Z,19.32
2022-10-22T19:39:50.281Z,19.28
2022-10-22T19:42:16.816Z,19.19
2022-10-22T19:44:43.287Z,19.08
2022-10-22T19:47:11.274Z,19.19
2022-10-22T19:49:37.711Z,19.17
2022-10-22T19:52:04.288Z,19.13
2022-10-22T19:54:30.771Z,19.09
2022-10-22T19:56:57.314Z,18.96
2022-10-22T19:59:26.232Z,19.06
2022-10-22T20:01:55.091Z,19.06
2022-10-22T20:04:24.975Z,19.02
2022-10-22T20:06:51.504Z,18.90
2022-10-22T20:09:18.014Z,18.94
2022-10-22T20:11:44.492Z,18.97
2022-10-22T20:14:12.777Z,18.92
2022-10-22T20:16:41.456Z,18.79
2022-10-22T20:19:08.570Z,18.86
2022-10-22T20:21:35.202Z,18.87
2022-10-22T20:24:02.764Z,18.85
2022-10-22T20:26:29.479Z,18.78
2022-10-22T20:28:57.384Z,18.71
2022-10-22T20:31:27.049Z,18.69
2022-10-22T20:33:57.243Z,18.57
2022-10-22T20:36:24.682Z,18.66
2022-10-22T20:38:52.060Z,18.50
2022-10-22T20:41:23.328Z,18.51
2022-10-22T20:43:51.887Z,18.49
2022-10-22T20:46:24.264Z,18.53
2022-10-22T20:48:58.205Z,18.53
2022-10-22T20:51:24.695Z,18.46
2022-10-22T20:53:51.129Z,18.34
2022-10-22T20:56:18.330Z,18.30
2022-10-22T20:58:48.480Z,18.19
2022-10-22T21:01:21.417Z,18.16
2022-10-22T21:03:49.892Z,18.17
2022-10-22T21:06:16.554Z,18.18
2022-10-22T21:08:43.017Z,18.26
2022-10-22T21:11:09.394Z,18.25
2022-10-22T21:13:35.816Z,18.24
2022-10-22T21:16:10.283Z,18.21
2022-10-22T21:18:36.958Z,18.00
2022-10-22T21:21:05.369Z,18.07
2022-10-22T21:23:32.532Z,18.01
2022-10-22T21:25:59.114Z,18.05
2022-10-22T21:28:25.869Z,17.91
2022-10-22T21:30:52.306Z,17.89
2022-10-22T21:33:18.700Z,17.90
2022-10-22T21:35:55.810Z,17.88
2022-10-22T21:38:23.532Z,17.90
2022-10-22T21:40:50.163Z,17.83
2022-10-22T21:43:17.211Z,17.80
2022-10-22T21:45:44.324Z,17.74
2022-10-22T21:48:13.411Z,17.66
2022-10-22T21:50:40.853Z,17.69
2022-10-22T21:53:08.290Z,17.78
2022-10-22T21:55:41.467Z,17.51
2022-10-22T21:58:08.646Z,17.19
2022-10-22T22:00:36.074Z,17.18
2022-10-22T22:03:02.477Z,17.26
2022-10-22T22:05:28.893Z,17.28
2022-10-22T22:07:55.292Z,17.35
2022-10-22T22:13:34.256Z,17.21
2022-10-22T22:16:06.401Z,17.18
2022-10-22T22:18:33.758Z,17.29
2022-10-22T22:21:04.119Z,17.29
2022-10-22T22:23:30.470Z,17.25
2022-10-22T22:26:00.681Z,17.27
2022-10-22T22:28:29.307Z,17.25
2022-10-22T22:30:55.997Z,17.30
2022-10-22T22:33:22.580Z,17.11
2022-10-22T22:35:48.930Z,17.02
2022-10-22T22:38:15.431Z,16.96
2022-10-22T22:40:41.886Z,16.97
2022-10-22T22:43:09.278Z,16.83
2022-10-22T22:45:35.742Z,16.84
2022-10-22T22:48:02.907Z,16.90
2022-10-22T22:50:29.477Z,16.84
2022-10-22T22:52:55.977Z,16.76
2022-10-22T22:55:23.003Z,16.87
2022-10-22T22:57:49.520Z,16.95
2022-10-22T23:00:16.437Z,16.86
2022-10-22T23:02:43.140Z,16.69
2022-10-22T23:05:09.676Z,16.54
2022-10-22T23:07:35.985Z,16.17
2022-10-22T23:10:02.298Z,16.23
2022-10-22T23:12:29.137Z,16.28
2022-10-22T23:14:55.474Z,16.41
2022-10-22T23:17:21.806Z,16.47
2022-10-22T23:19:48.142Z,16.40
2022-10-22T23:22:14.468Z,16.32
2022-10-22T23:24:40.787Z,16.31
2022-10-22T23:27:07.232Z,16.23
2022-10-22T23:29:35.693Z,16.13
2022-10-22T23:32:07.320Z,16.04
2022-10-22T23:34:33.629Z,15.90
2022-10-22T23:36:59.960Z,16.16
2022-10-22T23:39:28.420Z,16.17
2022-10-22T23:41:55.082Z,16.23
2022-10-22T23:44:22.470Z,16.37
2022-10-22T23:46:49.467Z,16.39
2022-10-22T23:49:16.601Z,16.42
2022-10-22T23:51:43.014Z,16.46
2022-10-22T23:54:15.383Z,16.47
2022-10-22T23:56:42.020Z,16.48
2022-10-22T23:59:09.147Z,16.41
